Time,TemperatureF,DewpointF,PressureIn,WindDirection,WindDirectionDegrees,WindSpeedMPH,WindSpeedGustMPH,Humidity,HourlyPrecipIn,Conditions,Clouds,dailyrainin,SoftwareType,DateUTC
2013-01-20 00:00:00,37.6,32.3,29.62,NE,45,9.0,17.0,81,0.00,RA,FEW,0.00,WeatherDisplay:10.37,2013-01-20 00:00:00,
2013-01-20 00:30:00,37.7,32.1,29.61,NE,45,10.0,20.0,80,0.00,,FEW,0.00,WeatherDisplay:10.37,2013-01-20 00:30:00,
2013-01-20 01:00:00,37.8,31.8,29.61,NE,45,8.0,17.0,79,0.00,,FEW,0.00,WeatherDisplay:10.37,2013-01-20 01:00:00,
2013-01-20 01:30:00,37.8,32.1,29.59,NE,45,9.0,18.0,80,0.00,,FEW,0.00,WeatherDisplay:10.37,2013-01-20 01:30:00,
2013-01-20 02:29:00,37.7,32.1,29.59,NE,45,15.0,22.0,80,0.00,,FEW,0.00,WeatherDisplay:10.37,2013-01-20 02:29:00,
2013-01-20 03:00:00,37.6,30.7,29.58,NE,45,12.0,22.0,76,0.00,,FEW,0.00,WeatherDisplay:10.37,2013-01-20 03:00:00,
2013-01-20 03:59:00,37.9,30.7,29.59,NE,45,9.0,23.0,75,0.00,,FEW,0.00,WeatherDisplay:10.37,2013-01-20 03:59:00,
2013-01-20 04:29:00,37.8,30.5,29.59,NE,45,8.0,17.0,75,0.00,,FEW,0.00,WeatherDisplay:10.37,2013-01-20 04:29:00,
2013-01-20 05:29:00,37.9,30.1,29.57,NE,45,10.0,20.0,73,0.00,,FEW,0.00,WeatherDisplay:10.37,2013-01-20 05:29:00,
2013-01-20 06:00:00,37.8,29.5,29.57,NE,45,8.0,20.0,72,0.00,,FEW,0.00,WeatherDisplay:10.37,2013-01-20 06:00:00,
2013-01-20 06:29:00,37.8,30.5,29.56,NE,45,10.0,20.0,75,0.00,,FEW,0.00,WeatherDisplay:10.37,2013-01-20 06:29:00,
2013-01-20 07:00:00,37.9,30.7,29.56,NE,45,8.0,17.0,75,0.00,,FEW,0.00,WeatherDisplay:10.37,2013-01-20 07:00:00,
2013-01-20 07:29:00,37.8,30.2,29.56,NE,45,9.0,18.0,74,0.00,,FEW,0.00,WeatherDisplay:10.37,2013-01-20 07:29:00,
2013-01-20 07:59:00,37.9,30.7,29.55,NE,45,9.0,18.0,75,0.00,,FEW,0.00,WeatherDisplay:10.37,2013-01-20 07:59:00,
2013-01-20 08:59:00,38.1,31.2,29.53,NE,45,13.0,21.0,76,0.00,,FEW,0.00,WeatherDisplay:10.37,2013-01-20 08:59:00,
2013-01-20 09:29:00,38.1,31.5,29.53,NE,45,12.0,21.0,77,0.00,,FEW,0.00,WeatherDisplay:10.37,2013-01-20 09:29:00,
2013-01-20 09:59:00,38.1,31.2,29.52,NE,45,13.0,23.0,76,0.00,,FEW,0.00,WeatherDisplay:10.37,2013-01-20 09:59:00,
2013-01-20 10:29:00,38.3,31.1,29.52,NE,45,13.0,27.0,75,0.00,,FEW,0.00,WeatherDisplay:10.37,2013-01-20 10:29:00,
2013-01-20 10:59:00,38.1,29.9,29.52,NE,45,15.0,22.0,72,0.00,,FEW,0.00,WeatherDisplay:10.37,2013-01-20 10:59:00,
2013-01-20 11:29:00,38.3,29.0,29.52,NE,45,10.0,23.0,69,0.00,,FEW,0.00,WeatherDisplay:10.37,2013-01-20 11:29:00,
2013-01-20 11:59:00,37.9,30.7,29.51,NE,45,8.0,21.0,75,0.00,,FEW,0.00,WeatherDisplay:10.37,2013-01-20 11:59:00,
2013-01-20 12:29:00,37.6,31.3,29.50,NE,45,9.0,16.0,78,0.00,,FEW,0.00,WeatherDisplay:10.37,2013-01-20 12:29:00,
2013-01-20 12:59:00,37.8,30.2,29.49,NE,45,8.0,21.0,74,0.00,,FEW,0.00,WeatherDisplay:10.37,2013-01-20 12:59:00,
2013-01-20 13:29:00,38.1,30.2,29.48,NE,45,7.0,17.0,73,0.00,,FEW,0.00,WeatherDisplay:10.37,2013-01-20 13:29:00,
2013-01-20 13:59:00,38.1,31.5,29.48,NE,45,8.0,16.0,77,0.00,,FEW,0.00,WeatherDisplay:10.37,2013-01-20 13:59:00,
2013-01-20 14:29:00,37.9,31.4,29.46,NE,45,12.0,20.0,77,0.00,,FEW,0.00,WeatherDisplay:10.37,2013-01-20 14:29:00,
2013-01-20 14:59:00,38.4,32.1,29.46,NE,45,8.0,20.0,78,0.00,,FEW,0.00,WeatherDisplay:10.37,2013-01-20 14:59:00,
2013-01-20 15:29:00,38.3,31.4,29.45,NE,45,9.0,18.0,76,0.00,,FEW,0.00,WeatherDisplay:10.37,2013-01-20 15:29:00,
2013-01-20 15:59:00,38.5,31.9,29.44,NE,45,9.0,20.0,77,0.00,,FEW,0.00,WeatherDisplay:10.37,2013-01-20 15:59:00,
2013-01-20 16:29:00,38.1,31.5,29.44,NE,45,15.0,23.0,77,0.00,,FEW,0.00,WeatherDisplay:10.37,2013-01-20 16:29:00,
2013-01-20 16:59:00,38.1,31.9,29.44,NE,45,8.0,22.0,78,0.00,,FEW,0.00,WeatherDisplay:10.37,2013-01-20 16:59:00,
2013-01-20 17:29:00,38.1,32.2,29.44,NE,45,8.0,21.0,79,0.00,,FEW,0.00,WeatherDisplay:10.37,2013-01-20 17:29:00,
2013-01-20 17:59:00,38.1,31.9,29.43,NE,45,10.0,21.0,78,0.00,,FEW,0.00,WeatherDisplay:10.37,2013-01-20 17:59:00,
2013-01-20 18:29:00,38.3,31.7,29.43,NE,45,14.0,20.0,77,0.00,,FEW,0.00,WeatherDisplay:10.37,2013-01-20 18:29:00,
2013-01-20 18:59:00,38.4,32.1,29.43,NE,45,9.0,20.0,78,0.00,,FEW,0.00,WeatherDisplay:10.37,2013-01-20 18:59:00,
2013-01-20 19:29:00,38.3,32.0,29.42,NE,45,12.0,21.0,78,0.00,,FEW,0.00,WeatherDisplay:10.37,2013-01-20 19:29:00,
2013-01-20 19:59:00,38.5,31.9,29.42,NE,45,12.0,21.0,77,0.00,,FEW,0.00,WeatherDisplay:10.37,2013-01-20 19:59:00,
2013-01-20 20:29:00,38.5,31.9,29.42,NE,45,13.0,21.0,77,0.00,,FEW,0.00,WeatherDisplay:10.37,2013-01-20 20:29:00,
2013-01-20 20:59:00,38.7,32.4,29.42,NE,45,14.0,23.0,78,0.00,,FEW,0.00,WeatherDisplay:10.37,2013-01-20 20:59:00,
2013-01-20 21:29:00,38.5,31.2,29.42,NE,45,13.0,21.0,75,0.00,,FEW,0.00,WeatherDisplay:10.37,2013-01-20 21:29:00,
2013-01-20 21:59:00,38.5,30.9,29.42,NE,45,8.0,20.0,74,0.00,,FEW,0.00,WeatherDisplay:10.37,2013-01-20 21:59:00,
2013-01-20 22:29:00,38.5,31.2,29.42,NE,45,13.0,21.0,75,0.00,,FEW,0.00,WeatherDisplay:10.37,2013-01-20 22:29:00,
2013-01-20 22:59:00,38.7,31.7,29.42,NE,45,13.0,21.0,76,0.00,,FEW,0.00,WeatherDisplay:10.37,2013-01-20 22:59:00,
2013-01-20 23:29:00,38.7,31.1,29.42,NE,45,14.0,22.0,74,0.00,,FEW,0.00,WeatherDisplay:10.37,2013-01-20 23:29:00,
2013-01-20 23:59:00,38.8,30.9,29.41,NE,45,13.0,21.0,73,0.00,,FEW,0.00,WeatherDisplay:10.37,2013-01-20 23:59:00,